sensor_id;sensor_type;location;lat;lon;timestamp;temperature;humidity
55836;DHT22;66908;50.988;4.780;2023-02-25T00:02:13;4.60;92.00
55836;DHT22;66908;50.988;4.780;2023-02-25T00:04:39;4.40;92.20
55836;DHT22;66908;50.988;4.780;2023-02-25T00:07:07;4.50;92.10
55836;DHT22;66908;50.988;4.780;2023-02-25T00:09:33;4.50;91.70
55836;DHT22;66908;50.988;4.780;2023-02-25T00:11:59;4.50;91.90
55836;DHT22;66908;50.988;4.780;2023-02-25T00:14:25;4.50;92.00
55836;DHT22;66908;50.988;4.780;2023-02-25T00:16:52;4.60;91.60
55836;DHT22;66908;50.988;4.780;2023-02-25T00:19:21;4.70;91.30
55836;DHT22;66908;50.988;4.780;2023-02-25T00:21:48;4.60;91.50
55836;DHT22;66908;50.988;4.780;2023-02-25T00:24:14;4.50;91.60
55836;DHT22;66908;50.988;4.780;2023-02-25T00:26:40;4.50;91.50
55836;DHT22;66908;50.988;4.780;2023-02-25T00:29:06;4.60;91.30
55836;DHT22;66908;50.988;4.780;2023-02-25T00:31:32;4.70;90.90
55836;DHT22;66908;50.988;4.780;2023-02-25T00:33:58;4.70;90.90
55836;DHT22;66908;50.988;4.780;2023-02-25T00:36:25;4.60;90.80
55836;DHT22;66908;50.988;4.780;2023-02-25T00:38:54;4.50;91.10
55836;DHT22;66908;50.988;4.780;2023-02-25T00:41:23;4.60;91.10
55836;DHT22;66908;50.988;4.780;2023-02-25T00:43:54;4.50;91.00
55836;DHT22;66908;50.988;4.780;2023-02-25T00:46:20;4.50;91.30
55836;DHT22;66908;50.988;4.780;2023-02-25T00:48:47;4.60;91.10
55836;DHT22;66908;50.988;4.780;2023-02-25T00:51:16;4.60;90.60
55836;DHT22;66908;50.988;4.780;2023-02-25T00:53:43;4.70;90.70
55836;DHT22;66908;50.988;4.780;2023-02-25T00:56:11;4.60;91.00
55836;DHT22;66908;50.988;4.780;2023-02-25T00:58:45;4.60;91.50
55836;DHT22;66908;50.988;4.780;2023-02-25T01:01:31;4.50;91.40
55836;DHT22;66908;50.988;4.780;2023-02-25T01:04:03;4.50;91.70
55836;DHT22;66908;50.988;4.780;2023-02-25T01:06:30;4.60;91.20
55836;DHT22;66908;50.988;4.780;2023-02-25T01:08:57;4.80;91.20
55836;DHT22;66908;50.988;4.780;2023-02-25T01:11:29;4.90;90.80
55836;DHT22;66908;50.988;4.780;2023-02-25T01:13:58;4.80;90.70
55836;DHT22;66908;50.988;4.780;2023-02-25T01:16:25;5.00;90.20
55836;DHT22;66908;50.988;4.780;2023-02-25T01:18:53;5.00;90.30
55836;DHT22;66908;50.988;4.780;2023-02-25T01:21:27;4.90;90.60
55836;DHT22;66908;50.988;4.780;2023-02-25T01:24:02;5.00;90.70
55836;DHT22;66908;50.988;4.780;2023-02-25T01:26:31;5.20;89.60
55836;DHT22;66908;50.988;4.780;2023-02-25T01:28:57;5.40;88.20
55836;DHT22;66908;50.988;4.780;2023-02-25T01:31:24;5.30;89.00
55836;DHT22;66908;50.988;4.780;2023-02-25T01:33:58;5.40;88.10
55836;DHT22;66908;50.988;4.780;2023-02-25T01:36:24;5.30;88.40
55836;DHT22;66908;50.988;4.780;2023-02-25T01:38:51;5.20;89.10
55836;DHT22;66908;50.988;4.780;2023-02-25T01:41:17;5.20;89.90
55836;DHT22;66908;50.988;4.780;2023-02-25T01:44:11;5.30;88.90
55836;DHT22;66908;50.988;4.780;2023-02-25T01:46:39;5.50;88.60
55836;DHT22;66908;50.988;4.780;2023-02-25T01:54:39;5.40;89.10
55836;DHT22;66908;50.988;4.780;2023-02-25T01:57:08;5.10;90.00
55836;DHT22;66908;50.988;4.780;2023-02-25T01:59:35;5.00;90.60
55836;DHT22;66908;50.988;4.780;2023-02-25T02:02:02;5.10;90.10
55836;DHT22;66908;50.988;4.780;2023-02-25T02:04:29;5.10;89.90
55836;DHT22;66908;50.988;4.780;2023-02-25T02:06:57;4.70;90.20
55836;DHT22;66908;50.988;4.780;2023-02-25T02:09:27;4.60;90.60
55836;DHT22;66908;50.988;4.780;2023-02-25T02:12:00;4.50;90.80
55836;DHT22;66908;50.988;4.780;2023-02-25T02:14:35;4.50;90.90
55836;DHT22;66908;50.988;4.780;2023-02-25T02:20:23;4.50;90.70
55836;DHT22;66908;50.988;4.780;2023-02-25T02:26:18;4.30;91.30
55836;DHT22;66908;50.988;4.780;2023-02-25T02:31:46;4.20;91.50
55836;DHT22;66908;50.988;4.780;2023-02-25T02:34:44;4.20;92.00
55836;DHT22;66908;50.988;4.780;2023-02-25T02:40:11;4.50;91.20
55836;DHT22;66908;50.988;4.780;2023-02-25T02:48:13;4.30;91.40
55836;DHT22;66908;50.988;4.780;2023-02-25T02:50:54;4.30;91.50
55836;DHT22;66908;50.988;4.780;2023-02-25T02:53:59;4.30;91.30
55836;DHT22;66908;50.988;4.780;2023-02-25T02:56:19;4.40;92.00
55836;DHT22;66908;50.988;4.780;2023-02-25T02:58:52;4.60;91.40
55836;DHT22;66908;50.988;4.780;2023-02-25T03:01:36;4.60;90.90
55836;DHT22;66908;50.988;4.780;2023-02-25T03:04:06;4.60;90.80
55836;DHT22;66908;50.988;4.780;2023-02-25T03:06:37;4.60;90.70
55836;DHT22;66908;50.988;4.780;2023-02-25T03:09:11;4.50;91.30
55836;DHT22;66908;50.988;4.780;2023-02-25T03:11:38;4.60;91.10
55836;DHT22;66908;50.988;4.780;2023-02-25T03:14:04;4.60;91.20
55836;DHT22;66908;50.988;4.780;2023-02-25T03:16:50;4.80;90.70
55836;DHT22;66908;50.988;4.780;2023-02-25T03:19:31;4.90;90.40
55836;DHT22;66908;50.988;4.780;2023-02-25T03:22:04;4.80;90.30
55836;DHT22;66908;50.988;4.780;2023-02-25T03:24:36;4.80;90.70
55836;DHT22;66908;50.988;4.780;2023-02-25T03:29:48;4.80;90.70
55836;DHT22;66908;50.988;4.780;2023-02-25T03:32:14;4.70;90.60
55836;DHT22;66908;50.988;4.780;2023-02-25T03:34:47;4.70;90.90
55836;DHT22;66908;50.988;4.780;2023-02-25T03:37:20;4.70;91.00
55836;DHT22;66908;50.988;4.780;2023-02-25T03:39:52;4.80;90.40
55836;DHT22;66908;50.988;4.780;2023-02-25T03:42:24;4.80;90.40
55836;DHT22;66908;50.988;4.780;2023-02-25T03:44:54;4.80;90.50
55836;DHT22;66908;50.988;4.780;2023-02-25T03:47:22;4.90;90.30
55836;DHT22;66908;50.988;4.780;2023-02-25T03:50:19;5.00;90.40
55836;DHT22;66908;50.988;4.780;2023-02-25T03:52:46;4.90;90.20
55836;DHT22;66908;50.988;4.780;2023-02-25T03:55:13;4.90;90.40
55836;DHT22;66908;50.988;4.780;2023-02-25T03:57:42;4.90;90.10
55836;DHT22;66908;50.988;4.780;2023-02-25T04:00:20;4.80;90.30
55836;DHT22;66908;50.988;4.780;2023-02-25T04:02:47;4.60;90.90
55836;DHT22;66908;50.988;4.780;2023-02-25T04:05:15;4.60;91.00
55836;DHT22;66908;50.988;4.780;2023-02-25T04:07:41;4.60;91.00
55836;DHT22;66908;50.988;4.780;2023-02-25T04:10:10;4.70;91.20
55836;DHT22;66908;50.988;4.780;2023-02-25T04:12:36;4.70;90.70
55836;DHT22;66908;50.988;4.780;2023-02-25T04:15:03;4.80;90.60
55836;DHT22;66908;50.988;4.780;2023-02-25T04:17:31;4.80;90.80
55836;DHT22;66908;50.988;4.780;2023-02-25T04:19:57;4.90;90.30
55836;DHT22;66908;50.988;4.780;2023-02-25T04:22:23;4.90;90.50
55836;DHT22;66908;50.988;4.780;2023-02-25T04:24:48;4.90;90.50
55836;DHT22;66908;50.988;4.780;2023-02-25T04:27:14;5.00;90.00
55836;DHT22;66908;50.988;4.780;2023-02-25T04:29:41;4.90;90.60
55836;DHT22;66908;50.988;4.780;2023-02-25T04:32:08;4.90;90.60
55836;DHT22;66908;50.988;4.780;2023-02-25T04:34:34;4.90;90.50
55836;DHT22;66908;50.988;4.780;2023-02-25T04:37:00;5.00;90.30
55836;DHT22;66908;50.988;4.780;2023-02-25T04:39:30;5.10;89.80
55836;DHT22;66908;50.988;4.780;2023-02-25T04:41:57;4.90;90.20
55836;DHT22;66908;50.988;4.780;2023-02-25T04:44:24;5.00;90.00
55836;DHT22;66908;50.988;4.780;2023-02-25T04:46:50;5.20;88.70
55836;DHT22;66908;50.988;4.780;2023-02-25T04:49:20;5.40;88.40
55836;DHT22;66908;50.988;4.780;2023-02-25T04:51:47;5.40;88.20
55836;DHT22;66908;50.988;4.780;2023-02-25T04:54:20;5.30;88.10
55836;DHT22;66908;50.988;4.780;2023-02-25T04:56:46;5.40;87.50
55836;DHT22;66908;50.988;4.780;2023-02-25T04:59:13;5.40;88.00
55836;DHT22;66908;50.988;4.780;2023-02-25T05:01:39;5.30;87.50
55836;DHT22;66908;50.988;4.780;2023-02-25T05:04:05;5.30;88.30
55836;DHT22;66908;50.988;4.780;2023-02-25T05:06:32;5.30;87.20
55836;DHT22;66908;50.988;4.780;2023-02-25T05:08:58;5.30;87.60
55836;DHT22;66908;50.988;4.780;2023-02-25T05:11:25;5.30;87.20
55836;DHT22;66908;50.988;4.780;2023-02-25T05:13:52;5.50;86.70
55836;DHT22;66908;50.988;4.780;2023-02-25T05:16:21;5.40;86.90
55836;DHT22;66908;50.988;4.780;2023-02-25T05:18:47;5.50;86.90
55836;DHT22;66908;50.988;4.780;2023-02-25T05:21:18;5.50;86.30
55836;DHT22;66908;50.988;4.780;2023-02-25T05:23:45;5.60;85.90
55836;DHT22;66908;50.988;4.780;2023-02-25T05:26:12;5.60;85.40
55836;DHT22;66908;50.988;4.780;2023-02-25T05:28:38;5.70;85.50
55836;DHT22;66908;50.988;4.780;2023-02-25T05:31:06;5.70;85.70
55836;DHT22;66908;50.988;4.780;2023-02-25T05:33:34;5.70;85.00
55836;DHT22;66908;50.988;4.780;2023-02-25T05:36:00;5.60;85.50
55836;DHT22;66908;50.988;4.780;2023-02-25T05:38:26;5.60;86.30
55836;DHT22;66908;50.988;4.780;2023-02-25T05:40:53;5.60;86.00
55836;DHT22;66908;50.988;4.780;2023-02-25T05:43:19;5.60;86.80
55836;DHT22;66908;50.988;4.780;2023-02-25T05:45:55;5.30;87.00
55836;DHT22;66908;50.988;4.780;2023-02-25T05:48:22;5.30;87.60
55836;DHT22;66908;50.988;4.780;2023-02-25T05:50:48;5.40;87.70
55836;DHT22;66908;50.988;4.780;2023-02-25T05:53:18;5.50;86.50
55836;DHT22;66908;50.988;4.780;2023-02-25T05:55:45;5.30;87.80
55836;DHT22;66908;50.988;4.780;2023-02-25T05:58:11;4.90;87.30
55836;DHT22;66908;50.988;4.780;2023-02-25T06:00:37;4.40;90.30
55836;DHT22;66908;50.988;4.780;2023-02-25T06:03:04;4.20;90.50
55836;DHT22;66908;50.988;4.780;2023-02-25T06:05:31;4.10;90.40
55836;DHT22;66908;50.988;4.780;2023-02-25T06:07:57;4.30;90.50
55836;DHT22;66908;50.988;4.780;2023-02-25T06:10:24;4.50;89.90
55836;DHT22;66908;50.988;4.780;2023-02-25T06:12:50;4.60;88.70
55836;DHT22;66908;50.988;4.780;2023-02-25T06:15:16;4.70;88.60
55836;DHT22;66908;50.988;4.780;2023-02-25T06:17:42;4.60;89.00
55836;DHT22;66908;50.988;4.780;2023-02-25T06:20:08;4.80;90.00
55836;DHT22;66908;50.988;4.780;2023-02-25T06:22:35;4.80;89.10
55836;DHT22;66908;50.988;4.780;2023-02-25T06:25:01;5.00;88.40
55836;DHT22;66908;50.988;4.780;2023-02-25T06:27:27;5.10;89.20
55836;DHT22;66908;50.988;4.780;2023-02-25T06:29:54;5.10;89.50
55836;DHT22;66908;50.988;4.780;2023-02-25T06:32:20;5.00;88.30
55836;DHT22;66908;50.988;4.780;2023-02-25T06:34:46;5.10;88.60
55836;DHT22;66908;50.988;4.780;2023-02-25T06:37:12;5.20;88.40
55836;DHT22;66908;50.988;4.780;2023-02-25T06:39:38;5.20;88.30
55836;DHT22;66908;50.988;4.780;2023-02-25T06:42:08;5.20;87.40
55836;DHT22;66908;50.988;4.780;2023-02-25T06:44:34;5.20;87.60
55836;DHT22;66908;50.988;4.780;2023-02-25T06:47:00;5.20;87.40
55836;DHT22;66908;50.988;4.780;2023-02-25T06:49:26;5.30;87.50
55836;DHT22;66908;50.988;4.780;2023-02-25T06:51:52;5.40;86.60
55836;DHT22;66908;50.988;4.780;2023-02-25T06:54:18;5.50;85.30
55836;DHT22;66908;50.988;4.780;2023-02-25T06:56:44;5.50;85.40
55836;DHT22;66908;50.988;4.780;2023-02-25T06:59:10;5.60;85.60
55836;DHT22;66908;50.988;4.780;2023-02-25T07:01:36;5.70;85.10
55836;DHT22;66908;50.988;4.780;2023-02-25T07:04:03;5.60;86.80
55836;DHT22;66908;50.988;4.780;2023-02-25T07:06:29;5.50;86.40
55836;DHT22;66908;50.988;4.780;2023-02-25T07:08:55;5.60;87.50
55836;DHT22;66908;50.988;4.780;2023-02-25T07:11:26;5.60;86.80
55836;DHT22;66908;50.988;4.780;2023-02-25T07:13:53;5.70;86.10
55836;DHT22;66908;50.988;4.780;2023-02-25T07:16:19;5.60;85.10
55836;DHT22;66908;50.988;4.780;2023-02-25T07:18:46;5.60;84.30
55836;DHT22;66908;50.988;4.780;2023-02-25T07:21:12;5.80;84.60
55836;DHT22;66908;50.988;4.780;2023-02-25T07:23:39;5.90;84.00
55836;DHT22;66908;50.988;4.780;2023-02-25T07:26:07;5.90;82.90
55836;DHT22;66908;50.988;4.780;2023-02-25T07:28:34;5.90;82.60
55836;DHT22;66908;50.988;4.780;2023-02-25T07:31:01;6.00;82.60
55836;DHT22;66908;50.988;4.780;2023-02-25T07:33:27;5.90;83.40
55836;DHT22;66908;50.988;4.780;2023-02-25T07:35:54;6.00;82.90
55836;DHT22;66908;50.988;4.780;2023-02-25T07:38:19;5.90;83.80
55836;DHT22;66908;50.988;4.780;2023-02-25T07:40:45;5.90;83.50
55836;DHT22;66908;50.988;4.780;2023-02-25T07:43:11;6.20;82.50
55836;DHT22;66908;50.988;4.780;2023-02-25T07:45:36;6.20;81.80
55836;DHT22;66908;50.988;4.780;2023-02-25T07:48:02;6.20;81.80
55836;DHT22;66908;50.988;4.780;2023-02-25T07:50:28;6.30;82.00
55836;DHT22;66908;50.988;4.780;2023-02-25T07:52:53;6.50;81.60
55836;DHT22;66908;50.988;4.780;2023-02-25T07:55:19;6.40;81.90
55836;DHT22;66908;50.988;4.780;2023-02-25T07:57:45;6.40;83.00
55836;DHT22;66908;50.988;4.780;2023-02-25T08:00:11;6.50;81.90
55836;DHT22;66908;50.988;4.780;2023-02-25T08:02:37;6.70;82.00
55836;DHT22;66908;50.988;4.780;2023-02-25T08:05:03;6.90;82.90
55836;DHT22;66908;50.988;4.780;2023-02-25T08:07:29;6.90;80.60
55836;DHT22;66908;50.988;4.780;2023-02-25T08:09:55;7.00;80.60
55836;DHT22;66908;50.988;4.780;2023-02-25T08:12:21;7.10;80.80
55836;DHT22;66908;50.988;4.780;2023-02-25T08:14:47;7.30;80.80
55836;DHT22;66908;50.988;4.780;2023-02-25T08:17:13;7.60;81.30
55836;DHT22;66908;50.988;4.780;2023-02-25T08:19:40;7.50;78.40
55836;DHT22;66908;50.988;4.780;2023-02-25T08:22:06;7.50;79.10
55836;DHT22;66908;50.988;4.780;2023-02-25T08:24:37;7.80;77.20
55836;DHT22;66908;50.988;4.780;2023-02-25T08:27:03;7.50;77.30
55836;DHT22;66908;50.988;4.780;2023-02-25T08:29:32;7.50;78.10
55836;DHT22;66908;50.988;4.780;2023-02-25T08:31:58;7.30;78.00
55836;DHT22;66908;50.988;4.780;2023-02-25T08:34:24;7.20;78.80
55836;DHT22;66908;50.988;4.780;2023-02-25T08:36:50;7.10;78.10
55836;DHT22;66908;50.988;4.780;2023-02-25T08:39:16;6.90;80.90
55836;DHT22;66908;50.988;4.780;2023-02-25T08:41:43;7.30;79.90
55836;DHT22;66908;50.988;4.780;2023-02-25T08:44:09;7.70;77.80
55836;DHT22;66908;50.988;4.780;2023-02-25T08:46:35;7.80;76.40
55836;DHT22;66908;50.988;4.780;2023-02-25T08:49:02;7.70;75.90
55836;DHT22;66908;50.988;4.780;2023-02-25T08:51:30;7.70;75.60
55836;DHT22;66908;50.988;4.780;2023-02-25T08:54:09;7.20;78.90
55836;DHT22;66908;50.988;4.780;2023-02-25T08:56:37;7.00;78.00
55836;DHT22;66908;50.988;4.780;2023-02-25T08:59:11;7.20;78.10
55836;DHT22;66908;50.988;4.780;2023-02-25T09:01:37;7.50;75.60
55836;DHT22;66908;50.988;4.780;2023-02-25T09:04:20;7.70;74.10
55836;DHT22;66908;50.988;4.780;2023-02-25T09:06:48;7.70;76.70
55836;DHT22;66908;50.988;4.780;2023-02-25T09:09:15;7.40;74.80
55836;DHT22;66908;50.988;4.780;2023-02-25T09:11:41;7.10;76.50
55836;DHT22;66908;50.988;4.780;2023-02-25T09:14:07;6.90;76.40
55836;DHT22;66908;50.988;4.780;2023-02-25T09:16:34;6.80;76.90
55836;DHT22;66908;50.988;4.780;2023-02-25T09:19:00;6.90;75.60
55836;DHT22;66908;50.988;4.780;2023-02-25T09:21:26;6.80;75.40
55836;DHT22;66908;50.988;4.780;2023-02-25T09:23:53;6.60;76.90
55836;DHT22;66908;50.988;4.780;2023-02-25T09:26:20;6.60;76.10
55836;DHT22;66908;50.988;4.780;2023-02-25T09:28:46;6.70;78.60
55836;DHT22;66908;50.988;4.780;2023-02-25T09:31:13;6.70;75.70
55836;DHT22;66908;50.988;4.780;2023-02-25T09:33:39;6.70;76.10
55836;DHT22;66908;50.988;4.780;2023-02-25T09:36:12;6.80;76.00
55836;DHT22;66908;50.988;4.780;2023-02-25T09:38:39;6.90;75.60
55836;DHT22;66908;50.988;4.780;2023-02-25T09:44:20;7.00;73.40
55836;DHT22;66908;50.988;4.780;2023-02-25T09:47:03;6.90;74.10
55836;DHT22;66908;50.988;4.780;2023-02-25T09:49:39;7.10;73.80
55836;DHT22;66908;50.988;4.780;2023-02-25T09:55:07;6.80;74.40
55836;DHT22;66908;50.988;4.780;2023-02-25T09:57:38;7.00;75.30
55836;DHT22;66908;50.988;4.780;2023-02-25T10:00:15;7.10;71.80
55836;DHT22;66908;50.988;4.780;2023-02-25T10:03:23;7.10;72.90
55836;DHT22;66908;50.988;4.780;2023-02-25T10:11:23;7.60;72.30
55836;DHT22;66908;50.988;4.780;2023-02-25T10:24:52;7.50;70.40
55836;DHT22;66908;50.988;4.780;2023-02-25T10:27:29;7.60;72.70
55836;DHT22;66908;50.988;4.780;2023-02-25T10:32:56;7.30;71.30
55836;DHT22;66908;50.988;4.780;2023-02-25T10:35:26;7.30;72.20
55836;DHT22;66908;50.988;4.780;2023-02-25T10:37:53;7.10;71.10
55836;DHT22;66908;50.988;4.780;2023-02-25T10:40:21;6.90;72.70
55836;DHT22;66908;50.988;4.780;2023-02-25T10:42:53;7.00;74.30
55836;DHT22;66908;50.988;4.780;2023-02-25T10:45:30;7.00;73.50
55836;DHT22;66908;50.988;4.780;2023-02-25T10:48:23;7.10;71.00
55836;DHT22;66908;50.988;4.780;2023-02-25T10:51:13;7.10;72.00
55836;DHT22;66908;50.988;4.780;2023-02-25T10:53:40;7.00;71.40
55836;DHT22;66908;50.988;4.780;2023-02-25T10:56:27;6.90;72.00
55836;DHT22;66908;50.988;4.780;2023-02-25T10:59:01;6.90;72.90
55836;DHT22;66908;50.988;4.780;2023-02-25T11:01:40;6.90;72.60
55836;DHT22;66908;50.988;4.780;2023-02-25T11:04:17;7.00;74.50
55836;DHT22;66908;50.988;4.780;2023-02-25T11:06:44;7.30;72.80
55836;DHT22;66908;50.988;4.780;2023-02-25T11:14:33;8.20;71.90
55836;DHT22;66908;50.988;4.780;2023-02-25T11:17:17;8.30;70.20
55836;DHT22;66908;50.988;4.780;2023-02-25T11:19:47;8.40;68.70
55836;DHT22;66908;50.988;4.780;2023-02-25T11:22:27;8.30;69.70
55836;DHT22;66908;50.988;4.780;2023-02-25T11:24:59;8.40;67.30
55836;DHT22;66908;50.988;4.780;2023-02-25T11:27:36;8.60;65.50
55836;DHT22;66908;50.988;4.780;2023-02-25T11:30:32;8.10;68.70
55836;DHT22;66908;50.988;4.780;2023-02-25T11:33:03;7.80;70.30
55836;DHT22;66908;50.988;4.780;2023-02-25T11:35:35;7.30;73.10
55836;DHT22;66908;50.988;4.780;2023-02-25T11:38:35;7.20;75.60
55836;DHT22;66908;50.988;4.780;2023-02-25T11:41:01;7.30;74.20
55836;DHT22;66908;50.988;4.780;2023-02-25T11:43:35;7.00;73.90
55836;DHT22;66908;50.988;4.780;2023-02-25T11:46:18;6.90;77.20
55836;DHT22;66908;50.988;4.780;2023-02-25T11:48:51;6.70;77.40
55836;DHT22;66908;50.988;4.780;2023-02-25T11:51:29;6.50;77.60
55836;DHT22;66908;50.988;4.780;2023-02-25T11:54:12;6.50;78.60
55836;DHT22;66908;50.988;4.780;2023-02-25T11:56:47;6.60;77.30
55836;DHT22;66908;50.988;4.780;2023-02-25T12:07:57;6.60;77.00
55836;DHT22;66908;50.988;4.780;2023-02-25T12:41:55;8.20;69.30
55836;DHT22;66908;50.988;4.780;2023-02-25T12:55:38;7.90;72.30
55836;DHT22;66908;50.988;4.780;2023-02-25T12:58:18;7.50;74.90
55836;DHT22;66908;50.988;4.780;2023-02-25T13:01:26;7.10;73.80
55836;DHT22;66908;50.988;4.780;2023-02-25T13:30:55;6.90;73.60
55836;DHT22;66908;50.988;4.780;2023-02-25T13:47:27;6.70;71.90
55836;DHT22;66908;50.988;4.780;2023-02-25T13:50:13;7.30;70.80
55836;DHT22;66908;50.988;4.780;2023-02-25T14:12:26;8.60;67.10
55836;DHT22;66908;50.988;4.780;2023-02-25T14:17:57;7.50;70.00
55836;DHT22;66908;50.988;4.780;2023-02-25T14:20:37;7.30;70.40
55836;DHT22;66908;50.988;4.780;2023-02-25T14:31:32;6.60;71.30
55836;DHT22;66908;50.988;4.780;2023-02-25T14:45:21;7.10;65.80
55836;DHT22;66908;50.988;4.780;2023-02-25T14:48:04;7.50;65.40
55836;DHT22;66908;50.988;4.780;2023-02-25T15:04:42;7.60;67.30
55836;DHT22;66908;50.988;4.780;2023-02-25T15:20:44;7.70;69.10
55836;DHT22;66908;50.988;4.780;2023-02-25T15:26:17;7.40;69.50
55836;DHT22;66908;50.988;4.780;2023-02-25T15:28:42;7.20;69.50
55836;DHT22;66908;50.988;4.780;2023-02-25T15:31:26;7.10;68.30
55836;DHT22;66908;50.988;4.780;2023-02-25T15:34:50;7.10;68.40
55836;DHT22;66908;50.988;4.780;2023-02-25T15:36:44;7.00;67.70
55836;DHT22;66908;50.988;4.780;2023-02-25T15:42:09;6.90;67.20
55836;DHT22;66908;50.988;4.780;2023-02-25T15:44:38;6.90;68.40
55836;DHT22;66908;50.988;4.780;2023-02-25T15:47:24;7.10;65.60
55836;DHT22;66908;50.988;4.780;2023-02-25T15:49:52;7.10;64.10
55836;DHT22;66908;50.988;4.780;2023-02-25T15:52:50;7.10;61.20
55836;DHT22;66908;50.988;4.780;2023-02-25T15:58:00;7.00;62.50
55836;DHT22;66908;50.988;4.780;2023-02-25T16:06:16;6.90;63.70
55836;DHT22;66908;50.988;4.780;2023-02-25T16:13:59;7.00;63.10
55836;DHT22;66908;50.988;4.780;2023-02-25T16:16:28;7.00;61.50
55836;DHT22;66908;50.988;4.780;2023-02-25T16:18:56;6.90;59.60
55836;DHT22;66908;50.988;4.780;2023-02-25T16:23:52;6.80;61.20
55836;DHT22;66908;50.988;4.780;2023-02-25T16:26:28;6.80;59.90
55836;DHT22;66908;50.988;4.780;2023-02-25T16:35:43;6.50;60.60
55836;DHT22;66908;50.988;4.780;2023-02-25T16:38:23;6.50;61.30
55836;DHT22;66908;50.988;4.780;2023-02-25T16:40:52;6.50;59.30
55836;DHT22;66908;50.988;4.780;2023-02-25T16:43:28;6.40;58.80
55836;DHT22;66908;50.988;4.780;2023-02-25T16:46:02;6.40;58.60
55836;DHT22;66908;50.988;4.780;2023-02-25T16:51:11;6.20;59.10
55836;DHT22;66908;50.988;4.780;2023-02-25T16:53:45;6.20;59.30
55836;DHT22;66908;50.988;4.780;2023-02-25T16:56:22;6.20;58.40
55836;DHT22;66908;50.988;4.780;2023-02-25T16:59:05;6.10;57.70
55836;DHT22;66908;50.988;4.780;2023-02-25T17:01:34;6.00;58.90
55836;DHT22;66908;50.988;4.780;2023-02-25T17:04:23;6.00;59.50
55836;DHT22;66908;50.988;4.780;2023-02-25T17:07:14;5.90;59.30
55836;DHT22;66908;50.988;4.780;2023-02-25T17:09:52;5.80;59.20
55836;DHT22;66908;50.988;4.780;2023-02-25T17:12:40;5.70;60.20
55836;DHT22;66908;50.988;4.780;2023-02-25T17:15:23;5.70;59.90
55836;DHT22;66908;50.988;4.780;2023-02-25T17:18:17;5.70;59.90
55836;DHT22;66908;50.988;4.780;2023-02-25T17:20:40;5.60;60.70
55836;DHT22;66908;50.988;4.780;2023-02-25T17:23:14;5.60;59.80
55836;DHT22;66908;50.988;4.780;2023-02-25T17:25:46;5.50;60.20
55836;DHT22;66908;50.988;4.780;2023-02-25T17:28:20;5.60;59.30
55836;DHT22;66908;50.988;4.780;2023-02-25T17:30:48;5.50;60.40
55836;DHT22;66908;50.988;4.780;2023-02-25T17:33:22;5.40;61.00
55836;DHT22;66908;50.988;4.780;2023-02-25T17:35:50;5.40;60.40
55836;DHT22;66908;50.988;4.780;2023-02-25T17:38:20;5.30;61.10
55836;DHT22;66908;50.988;4.780;2023-02-25T17:40:47;5.30;61.30
55836;DHT22;66908;50.988;4.780;2023-02-25T17:45:43;5.10;61.40
55836;DHT22;66908;50.988;4.780;2023-02-25T17:48:15;5.10;61.90
55836;DHT22;66908;50.988;4.780;2023-02-25T17:50:42;5.10;61.60
55836;DHT22;66908;50.988;4.780;2023-02-25T17:53:28;5.00;61.40
55836;DHT22;66908;50.988;4.780;2023-02-25T17:58:35;5.00;61.80
55836;DHT22;66908;50.988;4.780;2023-02-25T18:01:01;5.00;62.00
55836;DHT22;66908;50.988;4.780;2023-02-25T18:03:28;5.00;63.00
55836;DHT22;66908;50.988;4.780;2023-02-25T18:05:58;4.90;63.80
55836;DHT22;66908;50.988;4.780;2023-02-25T18:08:27;4.90;63.60
55836;DHT22;66908;50.988;4.780;2023-02-25T18:11:20;4.80;62.50
55836;DHT22;66908;50.988;4.780;2023-02-25T18:13:49;4.80;63.70
55836;DHT22;66908;50.988;4.780;2023-02-25T18:18:41;4.70;64.60
55836;DHT22;66908;50.988;4.780;2023-02-25T18:21:10;4.70;64.20
55836;DHT22;66908;50.988;4.780;2023-02-25T18:23:36;4.70;64.30
55836;DHT22;66908;50.988;4.780;2023-02-25T18:26:15;4.70;63.80
55836;DHT22;66908;50.988;4.780;2023-02-25T18:28:41;4.70;64.50
55836;DHT22;66908;50.988;4.780;2023-02-25T18:31:09;4.60;64.60
55836;DHT22;66908;50.988;4.780;2023-02-25T18:33:35;4.60;64.00
55836;DHT22;66908;50.988;4.780;2023-02-25T18:36:04;4.50;65.50
55836;DHT22;66908;50.988;4.780;2023-02-25T18:38:31;4.50;65.90
55836;DHT22;66908;50.988;4.780;2023-02-25T18:40:58;4.50;64.50
55836;DHT22;66908;50.988;4.780;2023-02-25T18:43:26;4.30;65.00
55836;DHT22;66908;50.988;4.780;2023-02-25T18:45:55;4.30;65.80
55836;DHT22;66908;50.988;4.780;2023-02-25T18:48:21;4.30;66.80
55836;DHT22;66908;50.988;4.780;2023-02-25T18:50:47;4.20;66.70
55836;DHT22;66908;50.988;4.780;2023-02-25T18:53:16;4.20;67.20
55836;DHT22;66908;50.988;4.780;2023-02-25T18:55:42;4.10;67.10
55836;DHT22;66908;50.988;4.780;2023-02-25T18:58:12;4.10;66.70
55836;DHT22;66908;50.988;4.780;2023-02-25T19:00:39;4.20;65.30
55836;DHT22;66908;50.988;4.780;2023-02-25T19:03:06;4.10;65.90
55836;DHT22;66908;50.988;4.780;2023-02-25T19:05:32;4.10;66.10
55836;DHT22;66908;50.988;4.780;2023-02-25T19:07:58;4.00;66.00
55836;DHT22;66908;50.988;4.780;2023-02-25T19:10:29;3.90;65.50
55836;DHT22;66908;50.988;4.780;2023-02-25T19:13:02;3.90;66.50
55836;DHT22;66908;50.988;4.780;2023-02-25T19:15:28;3.80;67.10
55836;DHT22;66908;50.988;4.780;2023-02-25T19:17:55;3.80;66.50
55836;DHT22;66908;50.988;4.780;2023-02-25T19:20:21;4.00;66.40
55836;DHT22;66908;50.988;4.780;2023-02-25T19:22:49;3.90;66.10
55836;DHT22;66908;50.988;4.780;2023-02-25T19:25:24;3.70;66.40
55836;DHT22;66908;50.988;4.780;2023-02-25T19:27:52;3.60;67.20
55836;DHT22;66908;50.988;4.780;2023-02-25T19:30:22;3.60;67.20
55836;DHT22;66908;50.988;4.780;2023-02-25T19:32:49;3.60;66.90
55836;DHT22;66908;50.988;4.780;2023-02-25T19:35:16;3.60;67.80
55836;DHT22;66908;50.988;4.780;2023-02-25T19:37:42;3.50;68.10
55836;DHT22;66908;50.988;4.780;2023-02-25T19:40:11;3.30;69.30
55836;DHT22;66908;50.988;4.780;2023-02-25T19:42:39;3.30;69.20
55836;DHT22;66908;50.988;4.780;2023-02-25T19:45:07;3.30;69.20
55836;DHT22;66908;50.988;4.780;2023-02-25T19:47:34;3.30;69.00
55836;DHT22;66908;50.988;4.780;2023-02-25T19:50:00;3.30;69.20
55836;DHT22;66908;50.988;4.780;2023-02-25T19:52:29;3.20;70.20
55836;DHT22;66908;50.988;4.780;2023-02-25T19:54:55;3.20;70.40
55836;DHT22;66908;50.988;4.780;2023-02-25T19:57:21;3.10;70.30
55836;DHT22;66908;50.988;4.780;2023-02-25T19:59:47;3.30;70.50
55836;DHT22;66908;50.988;4.780;2023-02-25T20:02:13;3.20;70.40
55836;DHT22;66908;50.988;4.780;2023-02-25T20:04:39;3.10;70.70
55836;DHT22;66908;50.988;4.780;2023-02-25T20:07:05;3.10;70.40
55836;DHT22;66908;50.988;4.780;2023-02-25T20:09:31;3.10;71.20
55836;DHT22;66908;50.988;4.780;2023-02-25T20:11:57;3.00;70.90
55836;DHT22;66908;50.988;4.780;2023-02-25T20:14:22;3.10;70.30
55836;DHT22;66908;50.988;4.780;2023-02-25T20:16:53;3.00;70.50
55836;DHT22;66908;50.988;4.780;2023-02-25T20:19:19;3.00;70.20
55836;DHT22;66908;50.988;4.780;2023-02-25T20:21:45;3.00;70.60
55836;DHT22;66908;50.988;4.780;2023-02-25T20:24:12;3.00;70.90